Elmer, MO (63538)

3:11 AM CDT on August 30, 2015 (GMT -0500)
Jayhawk Place | | Change Station
CLOSE
Current Station
Personal Weather Station
Location: Atlanta, MO
Elevation: 889 ft
Nearby Weather Stations

Elev 889 ft 39.89 °N, 92.49 °W | Updated 3 seconds ago

Overcast
Overcast
68.7 °F
Feels Like 68.7 °F
N
1.7
Wind Variable Wind from ESE

Today
High -- | Low -- °F
--% Chance of Precip.
Yesterday
High -- | Low -- °F
Precip. -- in
6:36 AM 7:45 PM
Full, 100% visible
Pressure 30.03 in
Visibility 3.0 miles
Clouds Overcast 4000 ft
Dew Point 68 °F
Humidity 99%
Rainfall 0.00 in
Snow Depth Not available.
UV 0 out of 12
Pollen 1.70 out of 12
Air Quality Not available.
Flu Activity Not available.
METAR KIRK 300755Z AUTO 02004KT 3SM BR OVC040 20/19 A3004 RMK AO2 SLP169 T02000189
Pressure 30.03 in
Visibility 3.0 miles
Clouds Overcast 4000 ft
Dew Point 68 °F
Humidity 99%
Rainfall 0.00 in
Snow Depth Not available.
UV 0 out of 12
Pollen 1.70 out of 12
Air Quality Not available.
Flu Activity Not available.
METAR KIRK 300755Z AUTO 02004KT 3SM BR OVC040 20/19 A3004 RMK AO2 SLP169 T02000189

10-Day Weather Forecast

×

Almanac

Astronomy

Aug. 30, 2015 Rise Set
Actual Time
Civil Twilight
Nautical Twilight
Astronomical Twilight
Moon
Length of Visible Light
Length of Day
Tomorrow will be .
, % of the Moon is Illuminated

Today's Extremes

State Highs State Lows

Community

WunderPhotos

Upload Photos

1,850,909 photos uploaded!

WunderBlogs® & News

Nearby

Air Quality

  Air Quality AQ Index Pollutant
Not available.

Snow Depth

Station Depth Elevation

Earthquake Activity

City Distance Mag. Time & Date
Minimum magnitude displayed is 2.5.

Coastal Water Temperatures

Place Temperature

Stations

Nearby Weather Stations

Station Location Temp. Windchill Dew Point Humidity Wind Precip. Elev Updated Type